sensor_id;sensor_type;location;lat;lon;timestamp;P1;durP1;ratioP1;P2;durP2;ratioP2
19566;SDS011;9930;49.240;8.548;2022-09-09T00:04:46;2.50;;;1.33;;
19566;SDS011;9930;49.240;8.548;2022-09-09T00:21:34;1.75;;;1.20;;
19566;SDS011;9930;49.240;8.548;2022-09-09T00:24:23;1.10;;;0.98;;
19566;SDS011;9930;49.240;8.548;2022-09-09T00:27:03;1.30;;;1.17;;
19566;SDS011;9930;49.240;8.548;2022-09-09T00:32:48;2.15;;;1.38;;
19566;SDS011;9930;49.240;8.548;2022-09-09T00:35:24;2.17;;;1.30;;
19566;SDS011;9930;49.240;8.548;2022-09-09T00:38:15;2.67;;;1.25;;
19566;SDS011;9930;49.240;8.548;2022-09-09T00:44:00;1.60;;;1.20;;
19566;SDS011;9930;49.240;8.548;2022-09-09T00:58:14;3.85;;;1.20;;
19566;SDS011;9930;49.240;8.548;2022-09-09T01:00:47;2.58;;;1.00;;
19566;SDS011;9930;49.240;8.548;2022-09-09T01:03:34;1.40;;;1.25;;
19566;SDS011;9930;49.240;8.548;2022-09-09T01:06:36;1.42;;;1.17;;
19566;SDS011;9930;49.240;8.548;2022-09-09T01:09:27;1.88;;;1.10;;
19566;SDS011;9930;49.240;8.548;2022-09-09T01:15:22;1.50;;;1.10;;
19566;SDS011;9930;49.240;8.548;2022-09-09T01:17:57;1.30;;;1.15;;
19566;SDS011;9930;49.240;8.548;2022-09-09T01:20:25;1.73;;;1.33;;
19566;SDS011;9930;49.240;8.548;2022-09-09T01:26:08;1.80;;;1.30;;
19566;SDS011;9930;49.240;8.548;2022-09-09T01:28:43;2.40;;;1.38;;
19566;SDS011;9930;49.240;8.548;2022-09-09T01:31:36;2.40;;;1.30;;
19566;SDS011;9930;49.240;8.548;2022-09-09T01:34:25;1.35;;;1.25;;
19566;SDS011;9930;49.240;8.548;2022-09-09T01:37:11;2.50;;;1.23;;
19566;SDS011;9930;49.240;8.548;2022-09-09T01:39:41;2.40;;;1.50;;
19566;SDS011;9930;49.240;8.548;2022-09-09T01:42:15;3.42;;;1.42;;
19566;SDS011;9930;49.240;8.548;2022-09-09T01:44:42;2.45;;;1.95;;
19566;SDS011;9930;49.240;8.548;2022-09-09T01:47:14;3.05;;;1.50;;
19566;SDS011;9930;49.240;8.548;2022-09-09T01:49:43;2.72;;;1.85;;
19566;SDS011;9930;49.240;8.548;2022-09-09T01:52:11;4.28;;;1.27;;
19566;SDS011;9930;49.240;8.548;2022-09-09T01:54:41;2.70;;;1.40;;
19566;SDS011;9930;49.240;8.548;2022-09-09T02:00:24;2.75;;;1.40;;
19566;SDS011;9930;49.240;8.548;2022-09-09T02:03:19;1.95;;;1.23;;
19566;SDS011;9930;49.240;8.548;2022-09-09T02:06:08;3.85;;;1.40;;
19566;SDS011;9930;49.240;8.548;2022-09-09T02:09:11;2.60;;;1.60;;
19566;SDS011;9930;49.240;8.548;2022-09-09T02:11:41;1.70;;;1.17;;
19566;SDS011;9930;49.240;8.548;2022-09-09T02:14:14;1.63;;;1.35;;
19566;SDS011;9930;49.240;8.548;2022-09-09T02:19:28;2.47;;;1.48;;
19566;SDS011;9930;49.240;8.548;2022-09-09T02:22:11;2.72;;;1.40;;
19566;SDS011;9930;49.240;8.548;2022-09-09T02:24:41;2.22;;;1.23;;
19566;SDS011;9930;49.240;8.548;2022-09-09T02:27:11;1.35;;;1.23;;
19566;SDS011;9930;49.240;8.548;2022-09-09T02:29:41;2.50;;;1.35;;
19566;SDS011;9930;49.240;8.548;2022-09-09T02:32:13;1.65;;;1.10;;
19566;SDS011;9930;49.240;8.548;2022-09-09T02:34:47;1.13;;;1.02;;
19566;SDS011;9930;49.240;8.548;2022-09-09T02:37:19;1.58;;;1.10;;
19566;SDS011;9930;49.240;8.548;2022-09-09T02:39:50;2.22;;;1.00;;
19566;SDS011;9930;49.240;8.548;2022-09-09T02:42:16;2.25;;;1.10;;
19566;SDS011;9930;49.240;8.548;2022-09-09T02:44:44;1.25;;;1.15;;
19566;SDS011;9930;49.240;8.548;2022-09-09T02:55:46;1.13;;;0.80;;
19566;SDS011;9930;49.240;8.548;2022-09-09T02:58:19;2.05;;;0.90;;
19566;SDS011;9930;49.240;8.548;2022-09-09T03:00:49;1.10;;;0.73;;
19566;SDS011;9930;49.240;8.548;2022-09-09T03:03:20;1.10;;;1.00;;
19566;SDS011;9930;49.240;8.548;2022-09-09T03:05:48;1.92;;;0.98;;
19566;SDS011;9930;49.240;8.548;2022-09-09T03:08:15;1.45;;;1.02;;
19566;SDS011;9930;49.240;8.548;2022-09-09T03:10:42;1.73;;;0.88;;
19566;SDS011;9930;49.240;8.548;2022-09-09T03:13:10;1.63;;;1.00;;
19566;SDS011;9930;49.240;8.548;2022-09-09T03:15:43;1.88;;;0.98;;
19566;SDS011;9930;49.240;8.548;2022-09-09T03:18:11;1.10;;;0.68;;
19566;SDS011;9930;49.240;8.548;2022-09-09T03:20:41;0.80;;;0.80;;
19566;SDS011;9930;49.240;8.548;2022-09-09T03:23:16;2.20;;;0.70;;
19566;SDS011;9930;49.240;8.548;2022-09-09T03:25:51;1.45;;;0.70;;
19566;SDS011;9930;49.240;8.548;2022-09-09T03:28:17;1.88;;;0.80;;
19566;SDS011;9930;49.240;8.548;2022-09-09T03:30:46;1.88;;;0.82;;
19566;SDS011;9930;49.240;8.548;2022-09-09T03:33:14;1.02;;;0.68;;
19566;SDS011;9930;49.240;8.548;2022-09-09T03:35:45;1.25;;;0.80;;
19566;SDS011;9930;49.240;8.548;2022-09-09T03:38:14;1.55;;;0.73;;
19566;SDS011;9930;49.240;8.548;2022-09-09T03:40:53;1.20;;;0.73;;
19566;SDS011;9930;49.240;8.548;2022-09-09T03:43:25;1.40;;;0.77;;
19566;SDS011;9930;49.240;8.548;2022-09-09T03:45:54;1.02;;;0.60;;
19566;SDS011;9930;49.240;8.548;2022-09-09T03:48:26;0.93;;;0.70;;
19566;SDS011;9930;49.240;8.548;2022-09-09T03:50:53;1.77;;;0.70;;
19566;SDS011;9930;49.240;8.548;2022-09-09T03:53:25;0.75;;;0.68;;
19566;SDS011;9930;49.240;8.548;2022-09-09T03:55:52;0.95;;;0.85;;
19566;SDS011;9930;49.240;8.548;2022-09-09T03:58:23;2.10;;;0.70;;
19566;SDS011;9930;49.240;8.548;2022-09-09T04:03:35;1.90;;;0.80;;
19566;SDS011;9930;49.240;8.548;2022-09-09T04:06:02;0.93;;;0.60;;
19566;SDS011;9930;49.240;8.548;2022-09-09T04:08:36;1.30;;;0.60;;
19566;SDS011;9930;49.240;8.548;2022-09-09T04:11:10;0.70;;;0.70;;
19566;SDS011;9930;49.240;8.548;2022-09-09T04:13:42;0.82;;;0.70;;
19566;SDS011;9930;49.240;8.548;2022-09-09T04:16:11;0.77;;;0.77;;
19566;SDS011;9930;49.240;8.548;2022-09-09T04:18:45;0.98;;;0.70;;
19566;SDS011;9930;49.240;8.548;2022-09-09T04:21:13;0.88;;;0.80;;
19566;SDS011;9930;49.240;8.548;2022-09-09T04:23:44;0.85;;;0.70;;
19566;SDS011;9930;49.240;8.548;2022-09-09T04:26:11;1.25;;;0.80;;
19566;SDS011;9930;49.240;8.548;2022-09-09T04:28:39;1.65;;;0.88;;
19566;SDS011;9930;49.240;8.548;2022-09-09T04:31:12;1.33;;;0.60;;
19566;SDS011;9930;49.240;8.548;2022-09-09T04:33:43;1.08;;;0.80;;
19566;SDS011;9930;49.240;8.548;2022-09-09T04:36:11;1.27;;;0.93;;
19566;SDS011;9930;49.240;8.548;2022-09-09T04:38:43;1.05;;;0.75;;
19566;SDS011;9930;49.240;8.548;2022-09-09T04:41:11;1.33;;;0.70;;
19566;SDS011;9930;49.240;8.548;2022-09-09T04:43:40;1.55;;;1.00;;
19566;SDS011;9930;49.240;8.548;2022-09-09T04:46:12;0.82;;;0.63;;
19566;SDS011;9930;49.240;8.548;2022-09-09T04:48:41;3.15;;;0.77;;
19566;SDS011;9930;49.240;8.548;2022-09-09T04:51:11;1.35;;;0.70;;
19566;SDS011;9930;49.240;8.548;2022-09-09T04:53:41;0.90;;;0.70;;
19566;SDS011;9930;49.240;8.548;2022-09-09T04:56:12;0.60;;;0.60;;
19566;SDS011;9930;49.240;8.548;2022-09-09T04:58:43;0.82;;;0.80;;
19566;SDS011;9930;49.240;8.548;2022-09-09T05:01:27;2.17;;;1.00;;
19566;SDS011;9930;49.240;8.548;2022-09-09T05:03:53;1.02;;;0.75;;
19566;SDS011;9930;49.240;8.548;2022-09-09T05:06:21;1.83;;;0.70;;
19566;SDS011;9930;49.240;8.548;2022-09-09T05:08:47;0.80;;;0.80;;
19566;SDS011;9930;49.240;8.548;2022-09-09T05:11:15;1.38;;;0.95;;
19566;SDS011;9930;49.240;8.548;2022-09-09T05:13:52;1.95;;;0.80;;
19566;SDS011;9930;49.240;8.548;2022-09-09T05:16:19;1.48;;;0.65;;
19566;SDS011;9930;49.240;8.548;2022-09-09T05:18:50;1.02;;;0.60;;
19566;SDS011;9930;49.240;8.548;2022-09-09T05:21:19;0.65;;;0.65;;
19566;SDS011;9930;49.240;8.548;2022-09-09T05:23:52;1.48;;;0.70;;
19566;SDS011;9930;49.240;8.548;2022-09-09T05:26:19;2.30;;;0.88;;
19566;SDS011;9930;49.240;8.548;2022-09-09T05:28:47;1.20;;;0.70;;
19566;SDS011;9930;49.240;8.548;2022-09-09T05:31:14;0.75;;;0.70;;
19566;SDS011;9930;49.240;8.548;2022-09-09T05:33:42;0.70;;;0.70;;
19566;SDS011;9930;49.240;8.548;2022-09-09T05:36:14;1.33;;;0.70;;
19566;SDS011;9930;49.240;8.548;2022-09-09T05:38:45;1.40;;;0.80;;
19566;SDS011;9930;49.240;8.548;2022-09-09T05:41:14;2.28;;;0.93;;
19566;SDS011;9930;49.240;8.548;2022-09-09T05:43:44;1.33;;;0.95;;
19566;SDS011;9930;49.240;8.548;2022-09-09T05:46:12;0.73;;;0.70;;
19566;SDS011;9930;49.240;8.548;2022-09-09T05:48:44;1.88;;;0.80;;
19566;SDS011;9930;49.240;8.548;2022-09-09T05:51:13;1.73;;;0.90;;
19566;SDS011;9930;49.240;8.548;2022-09-09T05:53:42;1.98;;;0.90;;
19566;SDS011;9930;49.240;8.548;2022-09-09T05:56:12;2.15;;;0.90;;
19566;SDS011;9930;49.240;8.548;2022-09-09T05:58:46;0.98;;;0.88;;
19566;SDS011;9930;49.240;8.548;2022-09-09T06:01:17;0.70;;;0.70;;
19566;SDS011;9930;49.240;8.548;2022-09-09T06:03:46;0.90;;;0.70;;
19566;SDS011;9930;49.240;8.548;2022-09-09T06:06:15;0.63;;;0.52;;
19566;SDS011;9930;49.240;8.548;2022-09-09T06:08:45;0.60;;;0.60;;
19566;SDS011;9930;49.240;8.548;2022-09-09T06:11:14;1.45;;;0.70;;
19566;SDS011;9930;49.240;8.548;2022-09-09T06:13:47;0.82;;;0.60;;
19566;SDS011;9930;49.240;8.548;2022-09-09T06:16:17;1.67;;;0.70;;
19566;SDS011;9930;49.240;8.548;2022-09-09T06:18:45;1.75;;;0.70;;
19566;SDS011;9930;49.240;8.548;2022-09-09T06:21:17;0.93;;;0.70;;
19566;SDS011;9930;49.240;8.548;2022-09-09T06:23:48;1.13;;;0.77;;
19566;SDS011;9930;49.240;8.548;2022-09-09T06:26:19;1.88;;;0.73;;
19566;SDS011;9930;49.240;8.548;2022-09-09T06:28:56;1.70;;;0.70;;
19566;SDS011;9930;49.240;8.548;2022-09-09T06:31:25;0.95;;;0.60;;
19566;SDS011;9930;49.240;8.548;2022-09-09T06:33:55;1.60;;;0.80;;
19566;SDS011;9930;49.240;8.548;2022-09-09T06:36:24;1.45;;;0.82;;
19566;SDS011;9930;49.240;8.548;2022-09-09T06:38:52;2.45;;;0.98;;
19566;SDS011;9930;49.240;8.548;2022-09-09T06:41:22;2.15;;;0.82;;
19566;SDS011;9930;49.240;8.548;2022-09-09T06:43:52;1.60;;;0.88;;
19566;SDS011;9930;49.240;8.548;2022-09-09T06:46:19;1.65;;;0.80;;
19566;SDS011;9930;49.240;8.548;2022-09-09T06:48:48;1.27;;;0.68;;
19566;SDS011;9930;49.240;8.548;2022-09-09T06:51:20;1.25;;;1.00;;
19566;SDS011;9930;49.240;8.548;2022-09-09T06:53:51;2.22;;;1.00;;
19566;SDS011;9930;49.240;8.548;2022-09-09T06:56:31;0.80;;;0.80;;
19566;SDS011;9930;49.240;8.548;2022-09-09T06:59:01;1.58;;;0.77;;
19566;SDS011;9930;49.240;8.548;2022-09-09T07:01:36;1.98;;;0.80;;
19566;SDS011;9930;49.240;8.548;2022-09-09T07:04:11;1.20;;;0.80;;
19566;SDS011;9930;49.240;8.548;2022-09-09T07:06:44;0.88;;;0.70;;
19566;SDS011;9930;49.240;8.548;2022-09-09T07:09:12;2.63;;;0.90;;
19566;SDS011;9930;49.240;8.548;2022-09-09T07:11:45;1.60;;;0.90;;
19566;SDS011;9930;49.240;8.548;2022-09-09T07:14:20;2.28;;;0.88;;
19566;SDS011;9930;49.240;8.548;2022-09-09T07:16:46;2.63;;;0.98;;
19566;SDS011;9930;49.240;8.548;2022-09-09T07:19:12;1.17;;;0.75;;
19566;SDS011;9930;49.240;8.548;2022-09-09T07:21:41;1.85;;;0.70;;
19566;SDS011;9930;49.240;8.548;2022-09-09T07:24:10;1.80;;;0.80;;
19566;SDS011;9930;49.240;8.548;2022-09-09T07:26:43;2.22;;;0.98;;
19566;SDS011;9930;49.240;8.548;2022-09-09T07:29:12;2.30;;;1.00;;
19566;SDS011;9930;49.240;8.548;2022-09-09T07:31:41;3.70;;;1.30;;
19566;SDS011;9930;49.240;8.548;2022-09-09T07:34:09;2.05;;;0.95;;
19566;SDS011;9930;49.240;8.548;2022-09-09T07:36:44;1.70;;;0.80;;
19566;SDS011;9930;49.240;8.548;2022-09-09T07:39:14;2.00;;;1.10;;
19566;SDS011;9930;49.240;8.548;2022-09-09T07:41:42;3.47;;;1.30;;
19566;SDS011;9930;49.240;8.548;2022-09-09T07:44:13;1.73;;;1.00;;
19566;SDS011;9930;49.240;8.548;2022-09-09T07:46:42;2.55;;;1.30;;
19566;SDS011;9930;49.240;8.548;2022-09-09T07:49:11;1.42;;;0.80;;
19566;SDS011;9930;49.240;8.548;2022-09-09T07:51:42;2.03;;;1.00;;
19566;SDS011;9930;49.240;8.548;2022-09-09T07:54:14;1.63;;;0.90;;
19566;SDS011;9930;49.240;8.548;2022-09-09T07:56:44;1.30;;;0.75;;
19566;SDS011;9930;49.240;8.548;2022-09-09T07:59:14;2.65;;;0.90;;
19566;SDS011;9930;49.240;8.548;2022-09-09T08:01:43;0.90;;;0.70;;
19566;SDS011;9930;49.240;8.548;2022-09-09T08:04:19;2.05;;;1.00;;
19566;SDS011;9930;49.240;8.548;2022-09-09T08:06:48;2.67;;;0.90;;
19566;SDS011;9930;49.240;8.548;2022-09-09T08:09:23;2.03;;;0.80;;
19566;SDS011;9930;49.240;8.548;2022-09-09T08:11:52;1.60;;;0.82;;
19566;SDS011;9930;49.240;8.548;2022-09-09T08:14:18;1.20;;;0.82;;
19566;SDS011;9930;49.240;8.548;2022-09-09T08:16:45;1.58;;;0.90;;
19566;SDS011;9930;49.240;8.548;2022-09-09T08:19:13;1.35;;;0.90;;
19566;SDS011;9930;49.240;8.548;2022-09-09T08:21:42;2.17;;;1.30;;
19566;SDS011;9930;49.240;8.548;2022-09-09T08:24:11;3.78;;;1.90;;
19566;SDS011;9930;49.240;8.548;2022-09-09T08:26:42;3.90;;;1.83;;
19566;SDS011;9930;49.240;8.548;2022-09-09T08:29:12;2.15;;;1.02;;
19566;SDS011;9930;49.240;8.548;2022-09-09T08:31:43;1.35;;;0.90;;
19566;SDS011;9930;49.240;8.548;2022-09-09T08:34:14;3.22;;;1.30;;
19566;SDS011;9930;49.240;8.548;2022-09-09T08:36:42;2.03;;;1.15;;
19566;SDS011;9930;49.240;8.548;2022-09-09T08:39:12;3.58;;;1.42;;
19566;SDS011;9930;49.240;8.548;2022-09-09T08:52:55;1.20;;;1.10;;
19566;SDS011;9930;49.240;8.548;2022-09-09T08:55:40;2.72;;;1.30;;
19566;SDS011;9930;49.240;8.548;2022-09-09T08:58:25;2.28;;;1.40;;
19566;SDS011;9930;49.240;8.548;2022-09-09T09:10:24;3.90;;;1.23;;
19566;SDS011;9930;49.240;8.548;2022-09-09T09:18:48;1.92;;;1.02;;
19566;SDS011;9930;49.240;8.548;2022-09-09T09:21:17;1.90;;;0.85;;
19566;SDS011;9930;49.240;8.548;2022-09-09T09:27:19;1.98;;;1.10;;
19566;SDS011;9930;49.240;8.548;2022-09-09T09:29:58;2.58;;;1.25;;
19566;SDS011;9930;49.240;8.548;2022-09-09T09:32:31;1.77;;;1.27;;
19566;SDS011;9930;49.240;8.548;2022-09-09T09:35:02;2.45;;;1.30;;
19566;SDS011;9930;49.240;8.548;2022-09-09T09:37:40;1.23;;;0.93;;
19566;SDS011;9930;49.240;8.548;2022-09-09T09:40:17;1.77;;;0.93;;
19566;SDS011;9930;49.240;8.548;2022-09-09T09:42:51;1.98;;;1.17;;
19566;SDS011;9930;49.240;8.548;2022-09-09T09:48:00;2.30;;;1.13;;
19566;SDS011;9930;49.240;8.548;2022-09-09T09:51:00;2.88;;;1.10;;
19566;SDS011;9930;49.240;8.548;2022-09-09T09:53:41;2.42;;;1.10;;
19566;SDS011;9930;49.240;8.548;2022-09-09T09:56:11;2.35;;;1.00;;
19566;SDS011;9930;49.240;8.548;2022-09-09T10:01:33;1.40;;;1.10;;
19566;SDS011;9930;49.240;8.548;2022-09-09T10:04:15;3.92;;;1.20;;
19566;SDS011;9930;49.240;8.548;2022-09-09T10:06:45;3.28;;;1.27;;
19566;SDS011;9930;49.240;8.548;2022-09-09T10:09:32;2.15;;;1.20;;
19566;SDS011;9930;49.240;8.548;2022-09-09T10:14:59;1.73;;;1.15;;
19566;SDS011;9930;49.240;8.548;2022-09-09T10:21:22;2.13;;;1.30;;
19566;SDS011;9930;49.240;8.548;2022-09-09T10:30:18;1.67;;;1.00;;
19566;SDS011;9930;49.240;8.548;2022-09-09T10:36:13;2.33;;;0.90;;
19566;SDS011;9930;49.240;8.548;2022-09-09T10:38:40;1.10;;;0.98;;
19566;SDS011;9930;49.240;8.548;2022-09-09T10:55:45;2.20;;;1.10;;
19566;SDS011;9930;49.240;8.548;2022-09-09T10:58:32;1.30;;;0.90;;
19566;SDS011;9930;49.240;8.548;2022-09-09T11:01:25;2.22;;;1.02;;
19566;SDS011;9930;49.240;8.548;2022-09-09T11:04:18;2.15;;;1.15;;
19566;SDS011;9930;49.240;8.548;2022-09-09T11:06:55;1.27;;;0.80;;
19566;SDS011;9930;49.240;8.548;2022-09-09T11:09:23;1.48;;;0.80;;
19566;SDS011;9930;49.240;8.548;2022-09-09T11:11:58;2.28;;;1.02;;
19566;SDS011;9930;49.240;8.548;2022-09-09T11:14:42;1.58;;;0.80;;
19566;SDS011;9930;49.240;8.548;2022-09-09T11:19:56;2.17;;;1.00;;
19566;SDS011;9930;49.240;8.548;2022-09-09T11:25:34;2.20;;;1.10;;
19566;SDS011;9930;49.240;8.548;2022-09-09T11:42:34;2.08;;;1.17;;
19566;SDS011;9930;49.240;8.548;2022-09-09T11:45:11;2.40;;;1.00;;
19566;SDS011;9930;49.240;8.548;2022-09-09T11:47:55;1.55;;;0.85;;
19566;SDS011;9930;49.240;8.548;2022-09-09T11:55:31;2.00;;;1.05;;
19566;SDS011;9930;49.240;8.548;2022-09-09T11:58:19;2.72;;;1.13;;
19566;SDS011;9930;49.240;8.548;2022-09-09T12:00:50;1.35;;;0.88;;
19566;SDS011;9930;49.240;8.548;2022-09-09T12:09:06;1.73;;;0.95;;
19566;SDS011;9930;49.240;8.548;2022-09-09T12:12:07;1.52;;;0.82;;
19566;SDS011;9930;49.240;8.548;2022-09-09T12:14:54;2.13;;;0.85;;
19566;SDS011;9930;49.240;8.548;2022-09-09T12:17:21;1.58;;;0.98;;
19566;SDS011;9930;49.240;8.548;2022-09-09T12:22:58;1.83;;;0.95;;
19566;SDS011;9930;49.240;8.548;2022-09-09T12:29:27;2.35;;;0.65;;
19566;SDS011;9930;49.240;8.548;2022-09-09T12:32:25;2.45;;;1.02;;
19566;SDS011;9930;49.240;8.548;2022-09-09T12:35:00;1.42;;;0.90;;
19566;SDS011;9930;49.240;8.548;2022-09-09T12:37:55;1.50;;;0.60;;
19566;SDS011;9930;49.240;8.548;2022-09-09T12:40:31;1.88;;;0.93;;
19566;SDS011;9930;49.240;8.548;2022-09-09T12:43:01;1.42;;;0.90;;
19566;SDS011;9930;49.240;8.548;2022-09-09T12:45:49;2.03;;;0.73;;
19566;SDS011;9930;49.240;8.548;2022-09-09T12:48:25;1.30;;;0.93;;
19566;SDS011;9930;49.240;8.548;2022-09-09T12:51:21;2.55;;;1.00;;
19566;SDS011;9930;49.240;8.548;2022-09-09T12:53:57;1.38;;;0.90;;
19566;SDS011;9930;49.240;8.548;2022-09-09T12:56:25;1.60;;;0.82;;
19566;SDS011;9930;49.240;8.548;2022-09-09T12:58:58;1.25;;;0.90;;
19566;SDS011;9930;49.240;8.548;2022-09-09T13:01:31;1.55;;;0.80;;
19566;SDS011;9930;49.240;8.548;2022-09-09T13:04:01;1.75;;;1.17;;
19566;SDS011;9930;49.240;8.548;2022-09-09T13:06:30;1.77;;;0.90;;
19566;SDS011;9930;49.240;8.548;2022-09-09T13:08:58;2.08;;;1.02;;
19566;SDS011;9930;49.240;8.548;2022-09-09T13:11:28;1.10;;;0.80;;
19566;SDS011;9930;49.240;8.548;2022-09-09T13:14:30;2.58;;;1.00;;
19566;SDS011;9930;49.240;8.548;2022-09-09T13:17:06;2.78;;;0.90;;
19566;SDS011;9930;49.240;8.548;2022-09-09T13:19:45;1.35;;;0.75;;
19566;SDS011;9930;49.240;8.548;2022-09-09T13:22:13;0.73;;;0.70;;
19566;SDS011;9930;49.240;8.548;2022-09-09T13:27:50;0.85;;;0.70;;
19566;SDS011;9930;49.240;8.548;2022-09-09T13:33:35;0.95;;;0.70;;
19566;SDS011;9930;49.240;8.548;2022-09-09T13:36:07;1.95;;;1.00;;
19566;SDS011;9930;49.240;8.548;2022-09-09T13:41:24;1.85;;;0.88;;
19566;SDS011;9930;49.240;8.548;2022-09-09T13:44:01;0.65;;;0.65;;
19566;SDS011;9930;49.240;8.548;2022-09-09T13:46:40;1.20;;;0.90;;
19566;SDS011;9930;49.240;8.548;2022-09-09T13:51:44;0.50;;;0.50;;
19566;SDS011;9930;49.240;8.548;2022-09-09T13:54:16;0.30;;;0.30;;
19566;SDS011;9930;49.240;8.548;2022-09-09T13:56:44;1.88;;;0.70;;
19566;SDS011;9930;49.240;8.548;2022-09-09T13:59:13;1.13;;;0.70;;
19566;SDS011;9930;49.240;8.548;2022-09-09T14:01:44;0.77;;;0.65;;
19566;SDS011;9930;49.240;8.548;2022-09-09T14:04:15;0.98;;;0.50;;
19566;SDS011;9930;49.240;8.548;2022-09-09T14:06:42;1.23;;;0.55;;
19566;SDS011;9930;49.240;8.548;2022-09-09T14:09:12;1.65;;;0.70;;
19566;SDS011;9930;49.240;8.548;2022-09-09T14:11:42;1.08;;;0.50;;
19566;SDS011;9930;49.240;8.548;2022-09-09T14:14:12;1.05;;;0.70;;
19566;SDS011;9930;49.240;8.548;2022-09-09T14:16:41;0.40;;;0.40;;
19566;SDS011;9930;49.240;8.548;2022-09-09T14:19:15;1.45;;;0.70;;
19566;SDS011;9930;49.240;8.548;2022-09-09T14:21:42;0.60;;;0.60;;
19566;SDS011;9930;49.240;8.548;2022-09-09T14:24:10;0.70;;;0.60;;
19566;SDS011;9930;49.240;8.548;2022-09-09T14:26:41;1.20;;;0.75;;
19566;SDS011;9930;49.240;8.548;2022-09-09T14:29:10;1.45;;;0.80;;
19566;SDS011;9930;49.240;8.548;2022-09-09T14:31:39;1.30;;;0.77;;
19566;SDS011;9930;49.240;8.548;2022-09-09T14:34:12;0.75;;;0.75;;
19566;SDS011;9930;49.240;8.548;2022-09-09T14:36:41;1.10;;;0.80;;
19566;SDS011;9930;49.240;8.548;2022-09-09T14:39:11;1.10;;;0.75;;
19566;SDS011;9930;49.240;8.548;2022-09-09T14:41:41;1.67;;;0.70;;
19566;SDS011;9930;49.240;8.548;2022-09-09T14:44:17;1.60;;;0.90;;
19566;SDS011;9930;49.240;8.548;2022-09-09T14:46:43;2.08;;;1.10;;
19566;SDS011;9930;49.240;8.548;2022-09-09T14:49:12;1.17;;;0.82;;
19566;SDS011;9930;49.240;8.548;2022-09-09T14:51:40;1.33;;;0.73;;
19566;SDS011;9930;49.240;8.548;2022-09-09T14:54:07;0.95;;;0.82;;
19566;SDS011;9930;49.240;8.548;2022-09-09T14:56:39;2.03;;;1.20;;
19566;SDS011;9930;49.240;8.548;2022-09-09T14:59:12;0.95;;;0.90;;
19566;SDS011;9930;49.240;8.548;2022-09-09T15:01:41;2.17;;;0.80;;
19566;SDS011;9930;49.240;8.548;2022-09-09T15:04:10;2.78;;;0.80;;
19566;SDS011;9930;49.240;8.548;2022-09-09T15:06:41;1.08;;;0.80;;
19566;SDS011;9930;49.240;8.548;2022-09-09T15:09:15;1.80;;;0.90;;
19566;SDS011;9930;49.240;8.548;2022-09-09T15:11:41;2.42;;;1.10;;
19566;SDS011;9930;49.240;8.548;2022-09-09T15:14:10;1.27;;;1.13;;
19566;SDS011;9930;49.240;8.548;2022-09-09T15:16:45;1.10;;;0.80;;
19566;SDS011;9930;49.240;8.548;2022-09-09T15:19:11;1.48;;;0.85;;
19566;SDS011;9930;49.240;8.548;2022-09-09T15:21:40;1.13;;;0.90;;
19566;SDS011;9930;49.240;8.548;2022-09-09T15:24:07;1.75;;;0.90;;
19566;SDS011;9930;49.240;8.548;2022-09-09T15:26:40;1.65;;;0.70;;
19566;SDS011;9930;49.240;8.548;2022-09-09T15:29:11;1.45;;;0.93;;
19566;SDS011;9930;49.240;8.548;2022-09-09T15:31:40;0.90;;;0.77;;
19566;SDS011;9930;49.240;8.548;2022-09-09T15:34:07;1.27;;;0.68;;
19566;SDS011;9930;49.240;8.548;2022-09-09T15:36:42;0.82;;;0.80;;
19566;SDS011;9930;49.240;8.548;2022-09-09T15:39:12;2.05;;;0.80;;
19566;SDS011;9930;49.240;8.548;2022-09-09T15:41:42;1.23;;;0.70;;
19566;SDS011;9930;49.240;8.548;2022-09-09T15:44:15;0.88;;;0.60;;
19566;SDS011;9930;49.240;8.548;2022-09-09T15:49:12;0.70;;;0.70;;
19566;SDS011;9930;49.240;8.548;2022-09-09T15:51:51;1.60;;;0.85;;
19566;SDS011;9930;49.240;8.548;2022-09-09T15:54:20;2.03;;;0.90;;
19566;SDS011;9930;49.240;8.548;2022-09-09T15:56:55;1.20;;;0.82;;
19566;SDS011;9930;49.240;8.548;2022-09-09T15:59:24;0.98;;;0.60;;
19566;SDS011;9930;49.240;8.548;2022-09-09T16:01:55;2.53;;;0.70;;
19566;SDS011;9930;49.240;8.548;2022-09-09T16:04:25;1.70;;;0.77;;
19566;SDS011;9930;49.240;8.548;2022-09-09T16:06:57;1.55;;;0.68;;
19566;SDS011;9930;49.240;8.548;2022-09-09T16:09:26;1.15;;;1.00;;
19566;SDS011;9930;49.240;8.548;2022-09-09T16:11:55;1.60;;;1.17;;
19566;SDS011;9930;49.240;8.548;2022-09-09T16:14:28;2.33;;;1.50;;
19566;SDS011;9930;49.240;8.548;2022-09-09T16:16:59;1.42;;;1.08;;
19566;SDS011;9930;49.240;8.548;2022-09-09T16:19:25;1.45;;;1.08;;
19566;SDS011;9930;49.240;8.548;2022-09-09T16:21:53;1.67;;;0.95;;
19566;SDS011;9930;49.240;8.548;2022-09-09T16:24:19;1.40;;;1.00;;
19566;SDS011;9930;49.240;8.548;2022-09-09T16:26:46;1.15;;;1.00;;
19566;SDS011;9930;49.240;8.548;2022-09-09T16:29:17;2.78;;;1.17;;
19566;SDS011;9930;49.240;8.548;2022-09-09T16:31:44;2.05;;;0.80;;
19566;SDS011;9930;49.240;8.548;2022-09-09T16:34:16;0.85;;;0.65;;
19566;SDS011;9930;49.240;8.548;2022-09-09T16:36:45;0.75;;;0.68;;
19566;SDS011;9930;49.240;8.548;2022-09-09T16:39:14;1.23;;;0.82;;
19566;SDS011;9930;49.240;8.548;2022-09-09T16:41:48;1.13;;;0.70;;
19566;SDS011;9930;49.240;8.548;2022-09-09T16:44:16;1.33;;;0.88;;
19566;SDS011;9930;49.240;8.548;2022-09-09T16:46:43;1.60;;;0.70;;
19566;SDS011;9930;49.240;8.548;2022-09-09T16:49:13;0.70;;;0.70;;
19566;SDS011;9930;49.240;8.548;2022-09-09T16:51:47;1.92;;;0.90;;
19566;SDS011;9930;49.240;8.548;2022-09-09T16:54:18;0.77;;;0.68;;
19566;SDS011;9930;49.240;8.548;2022-09-09T16:56:47;1.05;;;0.65;;
19566;SDS011;9930;49.240;8.548;2022-09-09T16:59:14;2.50;;;1.30;;
19566;SDS011;9930;49.240;8.548;2022-09-09T17:01:47;1.98;;;1.17;;
19566;SDS011;9930;49.240;8.548;2022-09-09T17:04:21;1.85;;;0.75;;
19566;SDS011;9930;49.240;8.548;2022-09-09T17:06:51;2.15;;;1.00;;
19566;SDS011;9930;49.240;8.548;2022-09-09T17:09:20;2.17;;;0.82;;
19566;SDS011;9930;49.240;8.548;2022-09-09T17:11:48;1.73;;;0.90;;
19566;SDS011;9930;49.240;8.548;2022-09-09T17:14:17;1.23;;;0.75;;
19566;SDS011;9930;49.240;8.548;2022-09-09T17:16:47;1.10;;;0.80;;
19566;SDS011;9930;49.240;8.548;2022-09-09T17:19:19;1.10;;;0.80;;
19566;SDS011;9930;49.240;8.548;2022-09-09T17:21:46;1.42;;;0.82;;
19566;SDS011;9930;49.240;8.548;2022-09-09T17:24:14;0.70;;;0.65;;
19566;SDS011;9930;49.240;8.548;2022-09-09T17:26:42;1.70;;;0.75;;
19566;SDS011;9930;49.240;8.548;2022-09-09T17:29:16;1.25;;;0.88;;
19566;SDS011;9930;49.240;8.548;2022-09-09T17:31:42;1.92;;;1.48;;
19566;SDS011;9930;49.240;8.548;2022-09-09T17:34:08;3.05;;;1.20;;
19566;SDS011;9930;49.240;8.548;2022-09-09T17:36:41;0.98;;;0.77;;
19566;SDS011;9930;49.240;8.548;2022-09-09T17:39:13;1.23;;;0.80;;
19566;SDS011;9930;49.240;8.548;2022-09-09T17:41:42;0.73;;;0.73;;
19566;SDS011;9930;49.240;8.548;2022-09-09T17:44:09;0.75;;;0.70;;
19566;SDS011;9930;49.240;8.548;2022-09-09T17:46:42;1.65;;;0.70;;
19566;SDS011;9930;49.240;8.548;2022-09-09T17:49:13;1.20;;;0.55;;
19566;SDS011;9930;49.240;8.548;2022-09-09T17:51:45;1.02;;;0.90;;
19566;SDS011;9930;49.240;8.548;2022-09-09T17:54:14;1.00;;;0.70;;
19566;SDS011;9930;49.240;8.548;2022-09-09T17:56:42;0.95;;;0.70;;
19566;SDS011;9930;49.240;8.548;2022-09-09T17:59:11;1.00;;;0.80;;
19566;SDS011;9930;49.240;8.548;2022-09-09T18:01:47;0.65;;;0.60;;
19566;SDS011;9930;49.240;8.548;2022-09-09T18:04:18;0.47;;;0.47;;
19566;SDS011;9930;49.240;8.548;2022-09-09T18:06:45;0.85;;;0.57;;
19566;SDS011;9930;49.240;8.548;2022-09-09T18:09:23;1.13;;;0.70;;
19566;SDS011;9930;49.240;8.548;2022-09-09T18:11:54;2.35;;;1.23;;
19566;SDS011;9930;49.240;8.548;2022-09-09T18:14:28;0.63;;;0.63;;
19566;SDS011;9930;49.240;8.548;2022-09-09T18:16:56;1.00;;;0.60;;
19566;SDS011;9930;49.240;8.548;2022-09-09T18:19:24;1.05;;;0.90;;
19566;SDS011;9930;49.240;8.548;2022-09-09T18:21:54;0.90;;;0.60;;
19566;SDS011;9930;49.240;8.548;2022-09-09T18:24:21;1.65;;;0.85;;
19566;SDS011;9930;49.240;8.548;2022-09-09T18:26:47;0.80;;;0.80;;
19566;SDS011;9930;49.240;8.548;2022-09-09T18:29:16;0.77;;;0.70;;